Time,TemperatureF,DewpointF,PressureIn,WindDirection,WindDirectionDegrees,WindSpeedMPH,WindSpeedGustMPH,Humidity,HourlyPrecipIn,Conditions,Clouds,dailyrainin,SoftwareType,DateUTC
2013-02-12 00:00:00,46.4,43.6,30.23,WSW,252,6.0,7.0,90,0.00,,,0.00,WeatherCatV1.13B119,2013-02-12 08:00:00,
2013-02-12 00:05:00,46.3,43.5,30.23,WSW,246,6.0,7.0,90,0.00,,,0.00,WeatherCatV1.13B119,2013-02-12 08:05:00,
2013-02-12 00:10:00,46.3,43.5,30.23,WSW,246,6.0,6.0,90,0.00,,,0.00,WeatherCatV1.13B119,2013-02-12 08:10:00,
2013-02-12 00:15:00,-999.0,-99.9,30.24,North,-999,-999.0,6.0,-999,0.00,,,0.00,WeatherCatV1.13B119,2013-02-12 08:15:00,
2013-02-12 00:20:00,-999.0,-99.9,30.24,North,-999,-999.0,0.0,-999,0.00,,,0.00,WeatherCatV1.13B119,2013-02-12 08:20:00,
2013-02-12 00:25:00,-999.0,-99.9,30.24,North,-999,-999.0,0.0,-999,0.00,,,0.00,WeatherCatV1.13B119,2013-02-12 08:25:00,
2013-02-12 00:30:00,-999.0,-99.9,30.24,North,-999,-999.0,0.0,-999,0.00,,,0.00,WeatherCatV1.13B119,2013-02-12 08:30:00,
2013-02-12 00:35:00,46.0,43.2,30.24,WSW,250,3.0,4.0,90,0.00,,,0.00,WeatherCatV1.13B119,2013-02-12 08:35:00,
2013-02-12 00:40:00,45.8,43.0,30.24,SW,219,3.0,3.0,90,0.00,,,0.00,WeatherCatV1.13B119,2013-02-12 08:40:00,
2013-02-12 00:45:00,45.7,42.9,30.23,WSW,255,3.0,3.0,90,0.00,,,0.00,WeatherCatV1.13B119,2013-02-12 08:45:00,
2013-02-12 00:50:00,45.6,43.1,30.23,WSW,249,3.0,3.0,91,0.00,,,0.00,WeatherCatV1.13B119,2013-02-12 08:50:00,
2013-02-12 00:55:00,45.6,43.1,30.23,WSW,238,2.0,3.0,91,0.00,,,0.00,WeatherCatV1.13B119,2013-02-12 08:55:00,
2013-02-12 01:00:00,45.7,43.2,30.24,WSW,240,1.0,2.0,91,0.00,,,0.00,WeatherCatV1.13B119,2013-02-12 09:00:00,
2013-02-12 01:05:00,45.6,43.1,30.24,WSW,246,2.0,3.0,91,0.00,,,0.00,WeatherCatV1.13B119,2013-02-12 09:05:00,
2013-02-12 01:10:00,45.6,43.1,30.24,WSW,250,2.0,3.0,91,0.00,,,0.00,WeatherCatV1.13B119,2013-02-12 09:10:00,
2013-02-12 01:15:00,45.7,43.2,30.24,WSW,252,2.0,4.0,91,0.00,,,0.00,WeatherCatV1.13B119,2013-02-12 09:15:00,
2013-02-12 01:20:00,45.6,43.1,30.24,WSW,237,2.0,3.0,91,0.00,,,0.00,WeatherCatV1.13B119,2013-02-12 09:20:00,
2013-02-12 01:25:00,45.5,43.0,30.24,SW,226,3.0,4.0,91,0.00,,,0.00,WeatherCatV1.13B119,2013-02-12 09:25:00,
2013-02-12 01:30:00,45.5,43.0,30.24,WSW,253,6.0,7.0,91,0.00,,,0.00,WeatherCatV1.13B119,2013-02-12 09:30:00,
2013-02-12 01:35:00,45.5,43.0,30.24,WSW,250,4.0,8.0,91,0.00,,,0.00,WeatherCatV1.13B119,2013-02-12 09:35:00,
2013-02-12 01:40:00,45.4,42.9,30.24,WSW,246,2.0,4.0,91,0.00,,,0.00,WeatherCatV1.13B119,2013-02-12 09:40:00,
2013-02-12 01:45:00,45.4,42.9,30.24,WSW,250,5.0,5.0,91,0.00,,,0.00,WeatherCatV1.13B119,2013-02-12 09:45:00,
2013-02-12 01:50:00,45.4,42.9,30.25,SW,229,3.0,4.0,91,0.00,,,0.00,WeatherCatV1.13B119,2013-02-12 09:50:00,
2013-02-12 01:55:00,45.4,42.9,30.25,SW,233,4.0,4.0,91,0.00,,,0.00,WeatherCatV1.13B119,2013-02-12 09:55:00,
2013-02-12 02:00:00,45.3,42.8,30.25,WSW,237,2.0,3.0,91,0.00,,,0.00,WeatherCatV1.13B119,2013-02-12 10:00:00,
2013-02-12 02:05:00,45.3,42.8,30.25,WSW,238,3.0,3.0,91,0.00,,,0.00,WeatherCatV1.13B119,2013-02-12 10:05:00,
2013-02-12 02:10:00,45.2,42.7,30.25,WSW,246,1.0,2.0,91,0.00,,,0.00,WeatherCatV1.13B119,2013-02-12 10:10:00,
2013-02-12 02:15:00,45.1,42.6,30.25,WSW,245,1.0,2.0,91,0.00,,,0.00,WeatherCatV1.13B119,2013-02-12 10:15:00,
2013-02-12 02:20:00,45.0,42.5,30.25,WSW,242,0.0,0.0,91,0.00,,,0.00,WeatherCatV1.13B119,2013-02-12 10:20:00,
2013-02-12 02:25:00,44.9,42.4,30.25,WSW,243,0.0,0.0,91,0.00,,,0.00,WeatherCatV1.13B119,2013-02-12 10:25:00,
2013-02-12 02:30:00,44.7,42.2,30.25,WSW,244,0.0,0.0,91,0.00,,,0.00,WeatherCatV1.13B119,2013-02-12 10:30:00,
2013-02-12 02:35:00,44.7,42.2,30.25,WSW,244,0.0,0.0,91,0.00,,,0.00,WeatherCatV1.13B119,2013-02-12 10:35:00,
2013-02-12 02:40:00,44.5,42.0,30.25,WSW,243,0.0,0.0,91,0.00,,,0.00,WeatherCatV1.13B119,2013-02-12 10:40:00,
2013-02-12 02:45:00,44.3,41.8,30.25,WSW,243,0.0,0.0,91,0.00,,,0.00,WeatherCatV1.13B119,2013-02-12 10:45:00,
2013-02-12 02:50:00,44.1,41.6,30.25,WSW,243,0.0,0.0,91,0.00,,,0.00,WeatherCatV1.13B119,2013-02-12 10:50:00,
2013-02-12 02:55:00,44.1,41.6,30.25,WSW,243,0.0,0.0,91,0.00,,,0.00,WeatherCatV1.13B119,2013-02-12 10:55:00,
2013-02-12 03:00:00,44.1,41.6,30.25,WSW,244,0.0,0.0,91,0.00,,,0.00,WeatherCatV1.13B119,2013-02-12 11:00:00,
2013-02-12 03:05:00,44.3,41.8,30.25,WSW,242,0.0,0.0,91,0.00,,,0.00,WeatherCatV1.13B119,2013-02-12 11:05:00,
2013-02-12 03:10:00,44.5,42.0,30.25,WSW,244,0.0,0.0,91,0.00,,,0.00,WeatherCatV1.13B119,2013-02-12 11:10:00,
2013-02-12 03:15:00,44.4,41.9,30.25,WSW,243,0.0,0.0,91,0.00,,,0.00,WeatherCatV1.13B119,2013-02-12 11:15:00,
2013-02-12 03:20:00,44.1,41.6,30.25,WSW,243,0.0,0.0,91,0.00,,,0.00,WeatherCatV1.13B119,2013-02-12 11:20:00,
2013-02-12 03:25:00,43.9,41.4,30.25,WSW,243,0.0,0.0,91,0.00,,,0.00,WeatherCatV1.13B119,2013-02-12 11:25:00,
2013-02-12 03:30:00,44.1,41.6,30.26,WSW,243,0.0,0.0,91,0.00,,,0.00,WeatherCatV1.13B119,2013-02-12 11:30:00,
2013-02-12 03:35:00,44.3,41.8,30.25,WSW,240,0.0,0.0,91,0.00,,,0.00,WeatherCatV1.13B119,2013-02-12 11:35:00,
2013-02-12 03:40:00,44.4,41.9,30.26,WSW,242,0.0,0.0,91,0.00,,,0.00,WeatherCatV1.13B119,2013-02-12 11:40:00,
2013-02-12 03:45:00,44.3,41.8,30.26,WSW,242,0.0,0.0,91,0.00,,,0.00,WeatherCatV1.13B119,2013-02-12 11:45:00,
2013-02-12 03:50:00,44.3,41.8,30.26,WSW,242,0.0,0.0,91,0.00,,,0.00,WeatherCatV1.13B119,2013-02-12 11:50:00,
2013-02-12 03:55:00,44.6,42.1,30.26,WSW,243,0.0,0.0,91,0.00,,,0.00,WeatherCatV1.13B119,2013-02-12 11:55:00,
2013-02-12 04:00:00,44.7,42.2,30.26,WSW,240,0.0,0.0,91,0.00,,,0.00,WeatherCatV1.13B119,2013-02-12 12:00:00,
2013-02-12 04:05:00,44.8,42.3,30.26,WSW,240,0.0,0.0,91,0.00,,,0.00,WeatherCatV1.13B119,2013-02-12 12:05:00,
2013-02-12 04:10:00,44.8,42.3,30.26,WSW,240,0.0,0.0,91,0.00,,,0.00,WeatherCatV1.13B119,2013-02-12 12:10:00,
2013-02-12 04:15:00,44.8,42.3,30.26,WSW,240,0.0,0.0,91,0.00,,,0.00,WeatherCatV1.13B119,2013-02-12 12:15:00,
2013-02-12 04:20:00,44.8,42.3,30.26,WSW,240,0.0,0.0,91,0.00,,,0.00,WeatherCatV1.13B119,2013-02-12 12:20:00,
2013-02-12 04:25:00,44.8,42.3,30.26,WSW,240,0.0,0.0,91,0.00,,,0.00,WeatherCatV1.13B119,2013-02-12 12:25:00,
2013-02-12 04:30:00,44.8,42.3,30.26,WSW,246,0.0,0.0,91,0.00,,,0.00,WeatherCatV1.13B119,2013-02-12 12:30:00,
2013-02-12 04:35:00,44.8,42.3,30.26,WSW,252,0.0,0.0,91,0.00,,,0.00,WeatherCatV1.13B119,2013-02-12 12:35:00,
2013-02-12 04:40:00,44.8,42.3,30.26,WSW,257,0.0,0.0,91,0.00,,,0.00,WeatherCatV1.13B119,2013-02-12 12:40:00,
2013-02-12 04:45:00,44.8,42.3,30.26,WSW,253,0.0,0.0,91,0.00,,,0.00,WeatherCatV1.13B119,2013-02-12 12:45:00,
2013-02-12 04:50:00,45.0,42.5,30.26,West,260,2.0,2.0,91,0.00,,,0.00,WeatherCatV1.13B119,2013-02-12 12:50:00,
2013-02-12 04:55:00,45.0,42.5,30.26,WSW,250,2.0,2.0,91,0.00,,,0.00,WeatherCatV1.13B119,2013-02-12 12:55:00,
2013-02-12 05:00:00,45.0,42.5,30.26,WSW,256,3.0,3.0,91,0.00,,,0.00,WeatherCatV1.13B119,2013-02-12 13:00:00,
2013-02-12 05:05:00,45.0,42.5,30.27,West,259,2.0,2.0,91,0.00,,,0.00,WeatherCatV1.13B119,2013-02-12 13:05:00,
2013-02-12 05:10:00,45.0,42.5,30.27,WSW,253,2.0,2.0,91,0.00,,,0.00,WeatherCatV1.13B119,2013-02-12 13:10:00,
2013-02-12 05:15:00,45.0,42.5,30.27,WSW,249,2.0,3.0,91,0.00,,,0.00,WeatherCatV1.13B119,2013-02-12 13:15:00,
2013-02-12 05:20:00,45.0,42.5,30.27,West,263,2.0,3.0,91,0.00,,,0.00,WeatherCatV1.13B119,2013-02-12 13:20:00,
2013-02-12 05:25:00,45.0,42.5,30.27,West,259,2.0,3.0,91,0.00,,,0.00,WeatherCatV1.13B119,2013-02-12 13:25:00,
2013-02-12 05:30:00,44.9,42.4,30.27,WSW,252,1.0,2.0,91,0.00,,,0.00,WeatherCatV1.13B119,2013-02-12 13:30:00,
2013-02-12 05:35:00,44.9,42.4,30.28,WSW,252,0.0,1.0,91,0.00,,,0.00,WeatherCatV1.13B119,2013-02-12 13:35:00,
2013-02-12 05:40:00,45.1,42.9,30.28,WSW,248,0.0,1.0,92,0.00,,,0.00,WeatherCatV1.13B119,2013-02-12 13:40:00,
2013-02-12 05:45:00,45.2,43.0,30.28,West,260,1.0,2.0,92,0.00,,,0.00,WeatherCatV1.13B119,2013-02-12 13:45:00,
2013-02-12 05:50:00,45.3,43.1,30.29,WSW,256,0.0,0.0,92,0.00,,,0.00,WeatherCatV1.13B119,2013-02-12 13:50:00,
2013-02-12 05:55:00,45.4,43.2,30.29,WSW,256,0.0,0.0,92,0.00,,,0.00,WeatherCatV1.13B119,2013-02-12 13:55:00,
2013-02-12 06:00:00,45.4,43.2,30.29,WSW,252,0.0,0.0,92,0.00,,,0.00,WeatherCatV1.13B119,2013-02-12 14:00:00,
2013-02-12 06:05:00,45.5,43.3,30.29,WSW,253,0.0,0.0,92,0.00,,,0.00,WeatherCatV1.13B119,2013-02-12 14:05:00,
2013-02-12 06:10:00,45.6,43.4,30.29,WSW,253,0.0,0.0,92,0.00,,,0.00,WeatherCatV1.13B119,2013-02-12 14:10:00,
2013-02-12 06:15:00,45.6,43.4,30.29,WSW,253,0.0,0.0,92,0.00,,,0.00,WeatherCatV1.13B119,2013-02-12 14:15:00,
2013-02-12 06:20:00,45.6,43.4,30.29,WSW,251,0.0,0.0,92,0.00,,,0.00,WeatherCatV1.13B119,2013-02-12 14:20:00,
2013-02-12 06:25:00,45.6,43.4,30.30,WSW,249,0.0,0.0,92,0.00,,,0.00,WeatherCatV1.13B119,2013-02-12 14:25:00,
2013-02-12 06:30:00,45.5,43.3,30.30,WSW,249,0.0,0.0,92,0.00,,,0.00,WeatherCatV1.13B119,2013-02-12 14:30:00,
2013-02-12 06:35:00,45.5,43.3,30.30,WSW,249,0.0,0.0,92,0.00,,,0.00,WeatherCatV1.13B119,2013-02-12 14:35:00,
2013-02-12 06:40:00,45.5,43.3,30.30,WSW,249,0.0,0.0,92,0.00,,,0.00,WeatherCatV1.13B119,2013-02-12 14:40:00,
2013-02-12 06:45:00,45.5,43.3,30.31,WSW,249,0.0,0.0,92,0.00,,,0.00,WeatherCatV1.13B119,2013-02-12 14:45:00,
2013-02-12 06:50:00,45.6,43.4,30.31,WSW,249,0.0,0.0,92,0.00,,,0.00,WeatherCatV1.13B119,2013-02-12 14:50:00,
2013-02-12 06:55:00,45.6,43.4,30.31,WSW,249,0.0,0.0,92,0.00,,,0.00,WeatherCatV1.13B119,2013-02-12 14:55:00,
2013-02-12 07:00:00,45.4,43.2,30.31,WSW,249,0.0,0.0,92,0.00,,,0.00,WeatherCatV1.13B119,2013-02-12 15:00:00,
2013-02-12 07:05:00,45.4,43.2,30.32,WSW,249,0.0,0.0,92,0.00,,,0.00,WeatherCatV1.13B119,2013-02-12 15:05:00,
2013-02-12 07:10:00,45.2,43.0,30.32,WSW,248,0.0,0.0,92,0.00,,,0.00,WeatherCatV1.13B119,2013-02-12 15:10:00,
2013-02-12 07:15:00,45.1,42.9,30.32,WSW,249,0.0,0.0,92,0.00,,,0.00,WeatherCatV1.13B119,2013-02-12 15:15:00,
2013-02-12 07:20:00,45.0,42.8,30.32,SW,236,0.0,0.0,92,0.00,,,0.00,WeatherCatV1.13B119,2013-02-12 15:20:00,
2013-02-12 07:25:00,44.9,42.7,30.32,SW,236,0.0,0.0,92,0.00,,,0.00,WeatherCatV1.13B119,2013-02-12 15:25:00,
2013-02-12 07:30:00,45.0,42.8,30.33,WSW,239,0.0,0.0,92,0.00,,,0.00,WeatherCatV1.13B119,2013-02-12 15:30:00,
2013-02-12 07:35:00,44.8,42.6,30.33,WSW,238,0.0,0.0,92,0.00,,,0.00,WeatherCatV1.13B119,2013-02-12 15:35:00,
2013-02-12 07:40:00,44.8,42.6,30.33,WSW,237,0.0,0.0,92,0.00,,,0.00,WeatherCatV1.13B119,2013-02-12 15:40:00,
2013-02-12 07:45:00,44.7,42.2,30.33,WSW,237,0.0,0.0,91,0.00,,,0.00,WeatherCatV1.13B119,2013-02-12 15:45:00,
2013-02-12 07:50:00,44.6,42.1,30.33,WSW,238,0.0,0.0,91,0.00,,,0.00,WeatherCatV1.13B119,2013-02-12 15:50:00,
2013-02-12 07:55:00,44.5,42.0,30.34,WSW,238,0.0,0.0,91,0.00,,,0.00,WeatherCatV1.13B119,2013-02-12 15:55:00,
2013-02-12 08:00:00,44.5,42.0,30.34,WSW,237,0.0,0.0,91,0.00,,,0.00,WeatherCatV1.13B119,2013-02-12 16:00:00,
2013-02-12 08:05:00,44.6,42.1,30.34,WSW,238,0.0,0.0,91,0.00,,,0.00,WeatherCatV1.13B119,2013-02-12 16:05:00,
2013-02-12 08:10:00,44.6,42.1,30.34,WSW,239,0.0,0.0,91,0.00,,,0.00,WeatherCatV1.13B119,2013-02-12 16:10:00,
2013-02-12 08:15:00,44.8,42.6,30.34,WSW,237,0.0,0.0,92,0.00,,,0.00,WeatherCatV1.13B119,2013-02-12 16:15:00,
2013-02-12 08:20:00,44.9,42.7,30.34,WSW,237,0.0,0.0,92,0.00,,,0.00,WeatherCatV1.13B119,2013-02-12 16:20:00,
2013-02-12 08:25:00,44.9,42.7,30.34,WSW,239,0.0,0.0,92,0.00,,,0.00,WeatherCatV1.13B119,2013-02-12 16:25:00,
2013-02-12 08:30:00,45.2,43.0,30.34,WSW,237,0.0,0.0,92,0.00,,,0.00,WeatherCatV1.13B119,2013-02-12 16:30:00,
2013-02-12 08:35:00,45.7,43.5,30.35,WSW,238,0.0,0.0,92,0.00,,,0.00,WeatherCatV1.13B119,2013-02-12 16:35:00,
2013-02-12 08:40:00,45.9,43.7,30.35,WSW,238,0.0,0.0,92,0.00,,,0.00,WeatherCatV1.13B119,2013-02-12 16:40:00,
2013-02-12 08:45:00,46.6,44.4,30.35,NNE,30,0.0,0.0,92,0.00,,,0.00,WeatherCatV1.13B119,2013-02-12 16:45:00,
2013-02-12 08:50:00,46.6,44.4,30.35,NNE,30,0.0,0.0,92,0.00,,,0.00,WeatherCatV1.13B119,2013-02-12 16:50:00,
2013-02-12 08:55:00,46.4,43.9,30.35,NE,40,2.0,2.0,91,0.00,,,0.00,WeatherCatV1.13B119,2013-02-12 16:55:00,
2013-02-12 09:00:00,46.0,43.5,30.36,NE,44,0.0,2.0,91,0.00,,,0.00,WeatherCatV1.13B119,2013-02-12 17:00:00,
2013-02-12 09:05:00,46.0,43.5,30.36,NE,44,0.0,0.0,91,0.00,,,0.00,WeatherCatV1.13B119,2013-02-12 17:05:00,
2013-02-12 09:10:00,46.1,43.6,30.36,NE,44,0.0,0.0,91,0.00,,,0.00,WeatherCatV1.13B119,2013-02-12 17:10:00,
2013-02-12 09:15:00,46.2,43.7,30.36,NE,44,0.0,0.0,91,0.00,,,0.00,WeatherCatV1.13B119,2013-02-12 17:15:00,
2013-02-12 09:20:00,46.2,43.7,30.36,NE,44,0.0,0.0,91,0.00,,,0.00,WeatherCatV1.13B119,2013-02-12 17:20:00,
2013-02-12 09:25:00,46.1,43.6,30.36,NNE,30,0.0,1.0,91,0.00,,,0.00,WeatherCatV1.13B119,2013-02-12 17:25:00,
2013-02-12 09:30:00,46.5,44.0,30.36,NE,46,0.0,0.0,91,0.00,,,0.00,WeatherCatV1.13B119,2013-02-12 17:30:00,
2013-02-12 09:35:00,46.8,44.3,30.36,NE,42,0.0,0.0,91,0.00,,,0.00,WeatherCatV1.13B119,2013-02-12 17:35:00,
2013-02-12 09:40:00,46.8,44.0,30.36,NE,44,0.0,0.0,90,0.00,,,0.00,WeatherCatV1.13B119,2013-02-12 17:40:00,
2013-02-12 09:45:00,46.9,44.1,30.36,NE,43,3.0,3.0,90,0.00,,,0.00,WeatherCatV1.13B119,2013-02-12 17:45:00,
2013-02-12 09:50:00,46.9,44.1,30.36,NE,49,2.0,3.0,90,0.00,,,0.00,WeatherCatV1.13B119,2013-02-12 17:50:00,
2013-02-12 09:55:00,47.0,44.2,30.36,NE,44,1.0,2.0,90,0.00,,,0.00,WeatherCatV1.13B119,2013-02-12 17:55:00,
2013-02-12 10:00:00,47.1,44.0,30.36,NE,40,1.0,2.0,89,0.00,,,0.00,WeatherCatV1.13B119,2013-02-12 18:00:00,
2013-02-12 10:05:00,47.3,44.2,30.36,NE,37,1.0,2.0,89,0.00,,,0.00,WeatherCatV1.13B119,2013-02-12 18:05:00,
2013-02-12 10:10:00,47.7,44.6,30.36,NE,42,0.0,2.0,89,0.00,,,0.00,WeatherCatV1.13B119,2013-02-12 18:10:00,
2013-02-12 10:15:00,47.9,44.5,30.36,NE,47,1.0,2.0,88,0.00,,,0.00,WeatherCatV1.13B119,2013-02-12 18:15:00,
2013-02-12 10:20:00,48.2,44.8,30.36,NNE,32,0.0,1.0,88,0.00,,,0.00,WeatherCatV1.13B119,2013-02-12 18:20:00,
2013-02-12 10:25:00,48.8,45.1,30.36,NE,36,0.0,1.0,87,0.00,,,0.00,WeatherCatV1.13B119,2013-02-12 18:25:00,
2013-02-12 10:31:00,50.3,46.6,30.36,SW,231,0.0,0.0,87,0.00,,,0.00,WeatherCatV1.13B119,2013-02-12 18:31:00,
2013-02-12 10:36:00,51.8,48.1,30.37,NE,36,0.0,0.0,87,0.00,,,0.00,WeatherCatV1.13B119,2013-02-12 18:36:00,
2013-02-12 10:41:00,51.2,45.9,30.36,NE,37,0.0,0.0,82,0.00,,,0.00,WeatherCatV1.13B119,2013-02-12 18:41:00,
2013-02-12 10:46:00,50.9,45.9,30.37,NE,51,0.0,0.0,83,0.00,,,0.00,WeatherCatV1.13B119,2013-02-12 18:46:00,
2013-02-12 10:51:00,50.3,45.0,30.37,NE,48,0.0,0.0,82,0.00,,,0.00,WeatherCatV1.13B119,2013-02-12 18:51:00,
2013-02-12 10:56:00,49.8,44.5,30.37,NE,41,0.0,2.0,82,0.00,,,0.00,WeatherCatV1.13B119,2013-02-12 18:56:00,
2013-02-12 11:01:00,49.9,44.9,30.37,NE,44,0.0,1.0,83,0.00,,,0.00,WeatherCatV1.13B119,2013-02-12 19:01:00,
2013-02-12 11:06:00,49.9,44.6,30.37,NE,43,2.0,3.0,82,0.00,,,0.00,WeatherCatV1.13B119,2013-02-12 19:06:00,
2013-02-12 11:11:00,50.0,45.0,30.37,NE,46,1.0,2.0,83,0.00,,,0.00,WeatherCatV1.13B119,2013-02-12 19:11:00,
2013-02-12 11:16:00,50.2,45.2,30.37,NNE,27,0.0,0.0,83,0.00,,,0.00,WeatherCatV1.13B119,2013-02-12 19:16:00,
2013-02-12 11:21:00,51.0,45.7,30.37,NE,34,0.0,0.0,82,0.00,,,0.00,WeatherCatV1.13B119,2013-02-12 19:21:00,
2013-02-12 11:26:00,51.8,45.8,30.37,NE,41,0.0,0.0,80,0.00,,,0.00,WeatherCatV1.13B119,2013-02-12 19:26:00,
2013-02-12 11:31:00,52.1,45.8,30.37,NE,40,1.0,2.0,79,0.00,,,0.00,WeatherCatV1.13B119,2013-02-12 19:31:00,
2013-02-12 11:36:00,52.4,46.1,30.37,NE,41,0.0,2.0,79,0.00,,,0.00,WeatherCatV1.13B119,2013-02-12 19:36:00,
2013-02-12 11:41:00,52.7,45.7,30.37,NNE,32,1.0,3.0,77,0.00,,,0.00,WeatherCatV1.13B119,2013-02-12 19:41:00,
2013-02-12 11:46:00,52.6,45.3,30.37,NE,44,3.0,3.0,76,0.00,,,0.00,WeatherCatV1.13B119,2013-02-12 19:46:00,
2013-02-12 11:51:00,52.8,45.4,30.37,NE,35,0.0,1.0,76,0.00,,,0.00,WeatherCatV1.13B119,2013-02-12 19:51:00,
2013-02-12 11:56:00,53.1,44.7,30.36,NE,35,0.0,2.0,73,0.00,,,0.00,WeatherCatV1.13B119,2013-02-12 19:56:00,
2013-02-12 12:01:00,53.4,45.0,30.36,NE,50,0.0,1.0,73,0.00,,,0.00,WeatherCatV1.13B119,2013-02-12 20:01:00,
2013-02-12 12:06:00,53.5,44.7,30.36,NE,39,0.0,3.0,72,0.00,,,0.00,WeatherCatV1.13B119,2013-02-12 20:06:00,
2013-02-12 12:11:00,53.7,44.9,30.35,NE,41,0.0,1.0,72,0.00,,,0.00,WeatherCatV1.13B119,2013-02-12 20:11:00,
2013-02-12 12:16:00,54.1,44.9,30.35,NE,50,1.0,1.0,71,0.00,,,0.00,WeatherCatV1.13B119,2013-02-12 20:16:00,
2013-02-12 12:21:00,54.4,44.4,30.35,NE,39,1.0,2.0,69,0.00,,,0.00,WeatherCatV1.13B119,2013-02-12 20:21:00,
2013-02-12 12:26:00,54.6,44.6,30.35,NE,39,0.0,2.0,69,0.00,,,0.00,WeatherCatV1.13B119,2013-02-12 20:26:00,
2013-02-12 12:31:00,54.5,43.8,30.35,NE,39,2.0,2.0,67,0.00,,,0.00,WeatherCatV1.13B119,2013-02-12 20:31:00,
2013-02-12 12:36:00,54.8,44.1,30.35,ENE,60,1.0,2.0,67,0.00,,,0.00,WeatherCatV1.13B119,2013-02-12 20:36:00,
2013-02-12 12:41:00,55.2,44.4,30.35,ENE,61,1.0,2.0,67,0.00,,,0.00,WeatherCatV1.13B119,2013-02-12 20:41:00,
2013-02-12 12:46:00,55.6,44.8,30.34,NE,47,0.0,2.0,67,0.00,,,0.00,WeatherCatV1.13B119,2013-02-12 20:46:00,
2013-02-12 12:51:00,56.7,45.1,30.35,NE,47,0.0,0.0,65,0.00,,,0.00,WeatherCatV1.13B119,2013-02-12 20:51:00,
2013-02-12 12:56:00,57.3,44.8,30.34,NE,37,0.0,2.0,63,0.00,,,0.00,WeatherCatV1.13B119,2013-02-12 20:56:00,
2013-02-12 13:01:00,57.3,44.0,30.34,North,354,1.0,2.0,61,0.00,,,0.00,WeatherCatV1.13B119,2013-02-12 21:01:00,
2013-02-12 13:06:00,57.4,44.5,30.34,NE,34,1.0,2.0,62,0.00,,,0.00,WeatherCatV1.13B119,2013-02-12 21:06:00,
2013-02-12 13:11:00,57.5,45.8,30.34,NE,39,1.0,1.0,65,0.00,,,0.00,WeatherCatV1.13B119,2013-02-12 21:11:00,
2013-02-12 13:16:00,58.2,43.9,30.34,NE,42,1.0,2.0,59,0.00,,,0.00,WeatherCatV1.13B119,2013-02-12 21:16:00,
2013-02-12 13:21:00,58.2,44.4,30.34,NE,42,0.0,1.0,60,0.00,,,0.00,WeatherCatV1.13B119,2013-02-12 21:21:00,
2013-02-12 13:26:00,59.0,44.2,30.33,NE,43,0.0,0.0,58,0.00,,,0.00,WeatherCatV1.13B119,2013-02-12 21:26:00,
2013-02-12 13:31:00,59.1,43.4,30.33,NE,41,0.0,0.0,56,0.00,,,0.00,WeatherCatV1.13B119,2013-02-12 21:31:00,
2013-02-12 13:36:00,59.1,43.9,30.33,NE,41,0.0,0.0,57,0.00,,,0.00,WeatherCatV1.13B119,2013-02-12 21:36:00,
2013-02-12 13:41:00,59.3,44.5,30.33,NE,39,0.0,0.0,58,0.00,,,0.00,WeatherCatV1.13B119,2013-02-12 21:41:00,
2013-02-12 13:46:00,59.7,43.5,30.33,NE,39,0.0,0.0,55,0.00,,,0.00,WeatherCatV1.13B119,2013-02-12 21:46:00,
2013-02-12 13:51:00,59.8,42.6,30.33,NE,40,0.0,0.0,53,0.00,,,0.00,WeatherCatV1.13B119,2013-02-12 21:51:00,
2013-02-12 13:56:00,59.8,42.6,30.33,NNE,24,0.0,0.0,53,0.00,,,0.00,WeatherCatV1.13B119,2013-02-12 21:56:00,
2013-02-12 14:01:00,59.8,42.6,30.33,NE,43,0.0,0.0,53,0.00,,,0.00,WeatherCatV1.13B119,2013-02-12 22:01:00,
2013-02-12 14:06:00,59.9,43.2,30.33,NE,42,0.0,0.0,54,0.00,,,0.00,WeatherCatV1.13B119,2013-02-12 22:06:00,
2013-02-12 14:11:00,59.8,42.6,30.32,NE,44,0.0,2.0,53,0.00,,,0.00,WeatherCatV1.13B119,2013-02-12 22:11:00,
2013-02-12 14:16:00,59.4,42.7,30.32,NE,34,0.0,1.0,54,0.00,,,0.00,WeatherCatV1.13B119,2013-02-12 22:16:00,
2013-02-12 14:21:00,59.5,41.9,30.32,NNE,29,0.0,1.0,52,0.00,,,0.00,WeatherCatV1.13B119,2013-02-12 22:21:00,
2013-02-12 14:26:00,59.2,41.6,30.32,NNE,32,0.0,0.0,52,0.00,,,0.00,WeatherCatV1.13B119,2013-02-12 22:26:00,
2013-02-12 14:31:00,59.3,42.7,30.32,NE,39,0.0,0.0,54,0.00,,,0.00,WeatherCatV1.13B119,2013-02-12 22:31:00,
2013-02-12 14:36:00,59.5,40.8,30.32,NE,34,2.0,2.0,50,0.00,,,0.00,WeatherCatV1.13B119,2013-02-12 22:36:00,
2013-02-12 14:41:00,59.2,39.0,30.32,NNE,32,1.0,2.0,47,0.00,,,0.00,WeatherCatV1.13B119,2013-02-12 22:41:00,
2013-02-12 14:46:00,59.0,39.9,30.32,NE,34,2.0,3.0,49,0.00,,,0.00,WeatherCatV1.13B119,2013-02-12 22:46:00,
2013-02-12 14:51:00,59.1,38.3,30.32,NNE,30,1.0,2.0,46,0.00,,,0.00,WeatherCatV1.13B119,2013-02-12 22:51:00,
2013-02-12 14:56:00,59.5,37.0,30.32,NNE,30,0.0,0.0,43,0.00,,,0.00,WeatherCatV1.13B119,2013-02-12 22:56:00,
2013-02-12 15:01:00,59.9,36.8,30.32,NNE,32,0.0,0.0,42,0.00,,,0.00,WeatherCatV1.13B119,2013-02-12 23:01:00,
2013-02-12 15:06:00,60.3,39.4,30.32,NE,34,0.0,0.0,46,0.00,,,0.00,WeatherCatV1.13B119,2013-02-12 23:06:00,
2013-02-12 15:11:00,60.3,35.9,30.32,NE,34,0.0,0.0,40,0.00,,,0.00,WeatherCatV1.13B119,2013-02-12 23:11:00,
2013-02-12 15:16:00,60.6,36.8,30.32,NE,34,0.0,0.0,41,0.00,,,0.00,WeatherCatV1.13B119,2013-02-12 23:16:00,
2013-02-12 15:21:00,60.9,38.8,30.32,NE,34,0.0,0.0,44,0.00,,,0.00,WeatherCatV1.13B119,2013-02-12 23:21:00,
2013-02-12 15:26:00,61.3,39.2,30.31,NE,34,0.0,0.0,44,0.00,,,0.00,WeatherCatV1.13B119,2013-02-12 23:26:00,
2013-02-12 15:31:00,61.6,40.6,30.31,NE,34,0.0,0.0,46,0.00,,,0.00,WeatherCatV1.13B119,2013-02-12 23:31:00,
2013-02-12 15:36:00,61.6,38.3,30.31,NE,35,0.0,0.0,42,0.00,,,0.00,WeatherCatV1.13B119,2013-02-12 23:36:00,
2013-02-12 15:41:00,61.6,38.9,30.31,NE,36,0.0,0.0,43,0.00,,,0.00,WeatherCatV1.13B119,2013-02-12 23:41:00,
2013-02-12 15:46:00,61.5,41.1,30.31,NE,36,0.0,0.0,47,0.00,,,0.00,WeatherCatV1.13B119,2013-02-12 23:46:00,
2013-02-12 15:51:00,61.4,39.9,30.31,NE,36,0.0,0.0,45,0.00,,,0.00,WeatherCatV1.13B119,2013-02-12 23:51:00,
2013-02-12 15:56:00,62.5,40.9,30.31,NE,36,0.0,0.0,45,0.00,,,0.00,WeatherCatV1.13B119,2013-02-12 23:56:00,
2013-02-12 16:01:00,63.0,44.1,30.31,East,82,0.0,0.0,50,0.00,,,0.00,WeatherCatV1.13B119,2013-02-13 00:01:00,
2013-02-12 16:06:00,63.0,47.5,30.31,WSW,246,0.0,0.0,57,0.00,,,0.00,WeatherCatV1.13B119,2013-02-13 00:06:00,
2013-02-12 16:11:00,62.9,46.0,30.31,SW,231,0.0,2.0,54,0.00,,,0.00,WeatherCatV1.13B119,2013-02-13 00:11:00,
2013-02-12 16:16:00,62.2,47.2,30.31,WSW,246,1.0,3.0,58,0.00,,,0.00,WeatherCatV1.13B119,2013-02-13 00:16:00,
2013-02-12 16:21:00,61.6,47.1,30.31,West,274,1.0,2.0,59,0.00,,,0.00,WeatherCatV1.13B119,2013-02-13 00:21:00,
2013-02-12 16:26:00,62.2,47.7,30.31,WSW,256,0.0,2.0,59,0.00,,,0.00,WeatherCatV1.13B119,2013-02-13 00:26:00,
2013-02-12 16:31:00,61.9,46.5,30.31,West,264,0.0,2.0,57,0.00,,,0.00,WeatherCatV1.13B119,2013-02-13 00:31:00,
2013-02-12 16:36:00,61.1,47.1,30.30,WSW,243,3.0,4.0,60,0.00,,,0.00,WeatherCatV1.13B119,2013-02-13 00:36:00,
2013-02-12 16:41:00,60.4,46.4,30.30,West,259,1.0,3.0,60,0.00,,,0.00,WeatherCatV1.13B119,2013-02-13 00:41:00,
2013-02-12 16:46:00,60.5,46.1,30.31,SW,226,2.0,3.0,59,0.00,,,0.00,WeatherCatV1.13B119,2013-02-13 00:46:00,
2013-02-12 16:51:00,60.0,45.6,30.30,WSW,254,1.0,2.0,59,0.00,,,0.00,WeatherCatV1.13B119,2013-02-13 00:51:00,
2013-02-12 16:56:00,59.5,46.5,30.30,West,269,2.0,5.0,62,0.00,,,0.00,WeatherCatV1.13B119,2013-02-13 00:56:00,
2013-02-12 17:01:00,59.3,47.1,30.31,West,265,1.0,2.0,64,0.00,,,0.00,WeatherCatV1.13B119,2013-02-13 01:01:00,
2013-02-12 17:06:00,59.7,47.5,30.31,SW,231,0.0,3.0,64,0.00,,,0.00,WeatherCatV1.13B119,2013-02-13 01:06:00,
2013-02-12 17:11:00,60.0,47.8,30.31,WSW,248,0.0,0.0,64,0.00,,,0.00,WeatherCatV1.13B119,2013-02-13 01:11:00,
2013-02-12 17:16:00,59.7,47.9,30.31,West,269,0.0,0.0,65,0.00,,,0.00,WeatherCatV1.13B119,2013-02-13 01:16:00,
2013-02-12 17:21:00,59.3,47.9,30.31,WSW,238,0.0,0.0,66,0.00,,,0.00,WeatherCatV1.13B119,2013-02-13 01:21:00,
2013-02-12 17:26:00,59.0,48.1,30.31,SW,236,0.0,0.0,67,0.00,,,0.00,WeatherCatV1.13B119,2013-02-13 01:26:00,
2013-02-12 17:31:00,58.3,47.4,30.31,SW,232,0.0,0.0,67,0.00,,,0.00,WeatherCatV1.13B119,2013-02-13 01:31:00,
2013-02-12 17:36:00,56.8,47.1,30.31,WSW,255,0.0,0.0,70,0.00,,,0.00,WeatherCatV1.13B119,2013-02-13 01:36:00,
2013-02-12 17:41:00,55.8,46.9,30.31,WSW,253,0.0,0.0,72,0.00,,,0.00,WeatherCatV1.13B119,2013-02-13 01:41:00,
2013-02-12 17:46:00,54.8,46.3,30.31,WSW,254,0.0,0.0,73,0.00,,,0.00,WeatherCatV1.13B119,2013-02-13 01:46:00,
2013-02-12 17:51:00,53.9,46.2,30.31,WSW,253,0.0,0.0,75,0.00,,,0.00,WeatherCatV1.13B119,2013-02-13 01:51:00,
2013-02-12 17:56:00,53.3,45.2,30.31,WSW,253,0.0,0.0,74,0.00,,,0.00,WeatherCatV1.13B119,2013-02-13 01:56:00,
2013-02-12 18:01:00,52.5,42.2,30.31,WSW,253,0.0,0.0,68,0.00,,,0.00,WeatherCatV1.13B119,2013-02-13 02:01:00,
2013-02-12 18:06:00,52.3,38.0,30.31,WSW,253,0.0,0.0,58,0.00,,,0.00,WeatherCatV1.13B119,2013-02-13 02:06:00,
2013-02-12 18:11:00,52.5,37.3,30.31,WSW,253,0.0,0.0,56,0.00,,,0.00,WeatherCatV1.13B119,2013-02-13 02:11:00,
2013-02-12 18:16:00,52.6,38.7,30.31,WSW,253,0.0,0.0,59,0.00,,,0.00,WeatherCatV1.13B119,2013-02-13 02:16:00,
2013-02-12 18:21:00,52.4,40.2,30.31,WSW,253,0.0,0.0,63,0.00,,,0.00,WeatherCatV1.13B119,2013-02-13 02:21:00,
2013-02-12 18:26:00,52.0,41.8,30.31,WSW,252,0.0,0.0,68,0.00,,,0.00,WeatherCatV1.13B119,2013-02-13 02:26:00,
2013-02-12 18:31:00,51.7,41.1,30.31,WSW,253,0.0,0.0,67,0.00,,,0.00,WeatherCatV1.13B119,2013-02-13 02:31:00,
2013-02-12 18:36:00,51.4,38.4,30.31,WSW,253,0.0,0.0,61,0.00,,,0.00,WeatherCatV1.13B119,2013-02-13 02:36:00,
2013-02-12 18:41:00,51.5,38.1,30.31,WSW,253,0.0,0.0,60,0.00,,,0.00,WeatherCatV1.13B119,2013-02-13 02:41:00,
2013-02-12 18:46:00,52.0,39.0,30.31,WSW,253,0.0,0.0,61,0.00,,,0.00,WeatherCatV1.13B119,2013-02-13 02:46:00,
2013-02-12 18:51:00,52.3,38.8,30.31,WSW,252,0.0,0.0,60,0.00,,,0.00,WeatherCatV1.13B119,2013-02-13 02:51:00,
2013-02-12 18:56:00,52.5,39.4,30.31,WSW,253,0.0,0.0,61,0.00,,,0.00,WeatherCatV1.13B119,2013-02-13 02:56:00,
2013-02-12 19:01:00,52.5,41.9,30.32,WSW,253,0.0,0.0,67,0.00,,,0.00,WeatherCatV1.13B119,2013-02-13 03:01:00,
2013-02-12 19:06:00,52.4,42.5,30.32,WSW,252,0.0,0.0,69,0.00,,,0.00,WeatherCatV1.13B119,2013-02-13 03:06:00,
2013-02-12 19:14:00,52.5,41.1,30.31,WSW,253,0.0,0.0,65,0.00,,,0.00,WeatherCatV1.13B119,2013-02-13 03:14:00,
2013-02-12 19:19:00,52.8,42.5,30.31,WSW,252,0.0,0.0,68,0.00,,,0.00,WeatherCatV1.13B119,2013-02-13 03:19:00,
2013-02-12 19:24:00,53.0,43.5,30.31,WSW,253,0.0,0.0,70,0.00,,,0.00,WeatherCatV1.13B119,2013-02-13 03:24:00,
2013-02-12 19:29:00,52.9,43.4,30.31,WSW,252,0.0,0.0,70,0.00,,,0.00,WeatherCatV1.13B119,2013-02-13 03:29:00,
2013-02-12 19:34:00,52.7,43.6,30.32,WSW,253,0.0,0.0,71,0.00,,,0.00,WeatherCatV1.13B119,2013-02-13 03:34:00,
2013-02-12 19:39:00,52.3,43.9,30.32,WSW,253,0.0,0.0,73,0.00,,,0.00,WeatherCatV1.13B119,2013-02-13 03:39:00,
2013-02-12 19:44:00,51.9,43.9,30.32,WSW,256,0.0,0.0,74,0.00,,,0.00,WeatherCatV1.13B119,2013-02-13 03:44:00,
2013-02-12 19:49:00,51.5,43.8,30.32,WSW,256,0.0,0.0,75,0.00,,,0.00,WeatherCatV1.13B119,2013-02-13 03:49:00,
2013-02-12 19:54:00,51.1,44.1,30.31,North,11,0.0,0.0,77,0.00,,,0.00,WeatherCatV1.13B119,2013-02-13 03:54:00,
2013-02-12 19:59:00,51.1,44.8,30.31,NNE,32,0.0,1.0,79,0.00,,,0.00,WeatherCatV1.13B119,2013-02-13 03:59:00,
2013-02-12 20:04:00,51.3,45.0,30.32,NE,42,1.0,1.0,79,0.00,,,0.00,WeatherCatV1.13B119,2013-02-13 04:04:00,
2013-02-12 20:09:00,51.4,45.1,30.32,NNE,32,0.0,1.0,79,0.00,,,0.00,WeatherCatV1.13B119,2013-02-13 04:09:00,
2013-02-12 20:14:00,51.3,45.0,30.32,NNE,33,0.0,0.0,79,0.00,,,0.00,WeatherCatV1.13B119,2013-02-13 04:14:00,
2013-02-12 20:19:00,51.2,44.9,30.32,NNE,32,0.0,0.0,79,0.00,,,0.00,WeatherCatV1.13B119,2013-02-13 04:19:00,
2013-02-12 20:24:00,51.2,44.9,30.32,NE,35,0.0,0.0,79,0.00,,,0.00,WeatherCatV1.13B119,2013-02-13 04:24:00,
2013-02-12 20:29:00,51.2,44.6,30.32,NE,41,0.0,0.0,78,0.00,,,0.00,WeatherCatV1.13B119,2013-02-13 04:29:00,
2013-02-12 20:34:00,51.1,44.5,30.32,NE,41,0.0,0.0,78,0.00,,,0.00,WeatherCatV1.13B119,2013-02-13 04:34:00,
2013-02-12 20:39:00,51.1,44.5,30.32,NE,41,0.0,0.0,78,0.00,,,0.00,WeatherCatV1.13B119,2013-02-13 04:39:00,
2013-02-12 20:44:00,51.1,44.1,30.32,NE,41,0.0,0.0,77,0.00,,,0.00,WeatherCatV1.13B119,2013-02-13 04:44:00,
2013-02-12 20:49:00,51.2,44.2,30.32,NE,41,0.0,0.0,77,0.00,,,0.00,WeatherCatV1.13B119,2013-02-13 04:49:00,
2013-02-12 20:54:00,51.3,44.3,30.32,NE,41,0.0,0.0,77,0.00,,,0.00,WeatherCatV1.13B119,2013-02-13 04:54:00,
2013-02-12 20:59:00,51.4,44.4,30.33,NE,41,0.0,0.0,77,0.00,,,0.00,WeatherCatV1.13B119,2013-02-13 04:59:00,
2013-02-12 21:00:00,51.4,44.4,30.32,NE,41,0.0,0.0,77,0.00,,,0.00,WeatherCatV1.13B119,2013-02-13 05:00:00,
2013-02-12 21:05:00,51.2,44.2,30.33,NE,41,0.0,0.0,77,0.00,,,0.00,WeatherCatV1.13B119,2013-02-13 05:05:00,
2013-02-12 21:10:00,51.0,44.0,30.33,NE,41,0.0,0.0,77,0.00,,,0.00,WeatherCatV1.13B119,2013-02-13 05:10:00,
2013-02-12 21:14:00,50.9,43.9,30.33,NE,41,0.0,0.0,77,0.00,,,0.00,WeatherCatV1.13B119,2013-02-13 05:14:00,
2013-02-12 21:19:00,50.8,44.2,30.33,NE,41,0.0,0.0,78,0.00,,,0.00,WeatherCatV1.13B119,2013-02-13 05:19:00,
2013-02-12 21:24:00,50.7,44.4,30.33,NE,41,0.0,0.0,79,0.00,,,0.00,WeatherCatV1.13B119,2013-02-13 05:24:00,
2013-02-12 21:29:00,50.7,44.4,30.33,NE,41,0.0,0.0,79,0.00,,,0.00,WeatherCatV1.13B119,2013-02-13 05:29:00,
2013-02-12 21:34:00,51.0,44.4,30.33,NE,41,0.0,0.0,78,0.00,,,0.00,WeatherCatV1.13B119,2013-02-13 05:34:00,
2013-02-12 21:39:00,51.2,44.6,30.33,NE,41,0.0,0.0,78,0.00,,,0.00,WeatherCatV1.13B119,2013-02-13 05:39:00,
2013-02-12 21:44:00,51.1,44.1,30.33,NE,41,0.0,0.0,77,0.00,,,0.00,WeatherCatV1.13B119,2013-02-13 05:44:00,
2013-02-12 21:49:00,50.9,44.3,30.33,NE,41,0.0,0.0,78,0.00,,,0.00,WeatherCatV1.13B119,2013-02-13 05:49:00,
2013-02-12 21:54:00,50.8,44.5,30.33,NE,41,0.0,0.0,79,0.00,,,0.00,WeatherCatV1.13B119,2013-02-13 05:54:00,
2013-02-12 21:59:00,50.8,44.2,30.33,NE,41,0.0,0.0,78,0.00,,,0.00,WeatherCatV1.13B119,2013-02-13 05:59:00,
2013-02-12 22:04:00,50.8,43.9,30.33,NE,41,0.0,0.0,77,0.00,,,0.00,WeatherCatV1.13B119,2013-02-13 06:04:00,
2013-02-12 22:09:00,50.8,43.9,30.33,NE,41,0.0,0.0,77,0.00,,,0.00,WeatherCatV1.13B119,2013-02-13 06:09:00,
2013-02-12 22:14:00,50.9,43.9,30.33,NE,41,0.0,0.0,77,0.00,,,0.00,WeatherCatV1.13B119,2013-02-13 06:14:00,
2013-02-12 22:19:00,50.8,43.9,30.33,NE,41,0.0,0.0,77,0.00,,,0.00,WeatherCatV1.13B119,2013-02-13 06:19:00,
2013-02-12 22:24:00,50.8,43.9,30.33,NE,41,0.0,0.0,77,0.00,,,0.00,WeatherCatV1.13B119,2013-02-13 06:24:00,
2013-02-12 22:29:00,50.7,43.4,30.33,NE,41,0.0,0.0,76,0.00,,,0.00,WeatherCatV1.13B119,2013-02-13 06:29:00,
2013-02-12 22:34:00,51.0,42.7,30.33,NE,41,0.0,0.0,73,0.00,,,0.00,WeatherCatV1.13B119,2013-02-13 06:34:00,
2013-02-12 22:35:00,51.0,42.3,30.33,NE,41,0.0,0.0,72,0.00,,,0.00,WeatherCatV1.13B119,2013-02-13 06:35:00,
2013-02-12 22:40:00,51.5,42.0,30.33,NE,41,0.0,0.0,70,0.00,,,0.00,WeatherCatV1.13B119,2013-02-13 06:40:00,
2013-02-12 22:45:00,51.8,42.3,30.33,NE,41,0.0,0.0,70,0.00,,,0.00,WeatherCatV1.13B119,2013-02-13 06:45:00,
2013-02-12 22:50:00,51.7,42.2,30.33,NE,41,0.0,0.0,70,0.00,,,0.00,WeatherCatV1.13B119,2013-02-13 06:50:00,
2013-02-12 22:55:00,51.6,42.1,30.33,NE,41,0.0,0.0,70,0.00,,,0.00,WeatherCatV1.13B119,2013-02-13 06:55:00,
2013-02-12 23:00:00,51.6,42.9,30.33,WSW,256,0.0,0.0,72,0.00,,,0.00,WeatherCatV1.13B119,2013-02-13 07:00:00,
2013-02-12 23:05:00,50.9,43.6,30.33,WSW,257,0.0,0.0,76,0.00,,,0.00,WeatherCatV1.13B119,2013-02-13 07:05:00,
2013-02-12 23:10:00,50.3,43.4,30.33,WSW,257,0.0,0.0,77,0.00,,,0.00,WeatherCatV1.13B119,2013-02-13 07:10:00,
2013-02-12 23:15:00,50.1,42.8,30.33,West,259,0.0,0.0,76,0.00,,,0.00,WeatherCatV1.13B119,2013-02-13 07:15:00,
2013-02-12 23:20:00,50.1,42.8,30.33,West,259,0.0,0.0,76,0.00,,,0.00,WeatherCatV1.13B119,2013-02-13 07:20:00,
2013-02-12 23:25:00,50.0,42.7,30.33,West,259,0.0,0.0,76,0.00,,,0.00,WeatherCatV1.13B119,2013-02-13 07:25:00,
2013-02-12 23:27:00,49.9,42.6,30.33,West,259,0.0,0.0,76,0.00,,,0.00,WeatherCatV1.13B119,2013-02-13 07:27:00,
2013-02-12 23:32:00,50.2,43.3,30.33,NNW,345,0.0,0.0,77,0.00,,,0.00,WeatherCatV1.13B119,2013-02-13 07:32:00,
2013-02-12 23:37:00,50.4,43.1,30.33,NNW,345,0.0,0.0,76,0.00,,,0.00,WeatherCatV1.13B119,2013-02-13 07:37:00,
2013-02-12 23:42:00,50.1,42.8,30.33,NNW,345,0.0,0.0,76,0.00,,,0.00,WeatherCatV1.13B119,2013-02-13 07:42:00,
2013-02-12 23:47:00,50.0,42.7,30.33,NNW,345,0.0,0.0,76,0.00,,,0.00,WeatherCatV1.13B119,2013-02-13 07:47:00,
2013-02-12 23:52:00,49.8,42.9,30.33,NNW,347,0.0,0.0,77,0.00,,,0.00,WeatherCatV1.13B119,2013-02-13 07:52:00,
2013-02-12 23:57:00,49.9,43.0,30.33,NNE,15,0.0,0.0,77,0.00,,,0.00,WeatherCatV1.13B119,2013-02-13 07:57:00,